sensor_id;sensor_type;location;lat;lon;timestamp;pressure;altitude;pressure_sealevel;temperature;humidity
15444;BME280;7822;48.146;11.576;2024-03-02T00:00:21;94078.44;;;15.56;62.24
15444;BME280;7822;48.146;11.576;2024-03-02T00:02:52;94076.03;;;15.54;62.31
15444;BME280;7822;48.146;11.576;2024-03-02T00:05:20;94075.41;;;15.52;62.18
15444;BME280;7822;48.146;11.576;2024-03-02T00:07:52;94064.13;;;15.52;62.21
15444;BME280;7822;48.146;11.576;2024-03-02T00:10:22;94068.53;;;15.51;62.07
15444;BME280;7822;48.146;11.576;2024-03-02T00:12:51;94067.09;;;15.49;62.28
15444;BME280;7822;48.146;11.576;2024-03-02T00:15:27;94061.88;;;15.49;62.34
15444;BME280;7822;48.146;11.576;2024-03-02T00:18:01;94057.84;;;15.46;62.29
15444;BME280;7822;48.146;11.576;2024-03-02T00:20:28;94064.03;;;15.45;62.08
15444;BME280;7822;48.146;11.576;2024-03-02T00:23:03;94057.16;;;15.44;61.79
15444;BME280;7822;48.146;11.576;2024-03-02T00:25:40;94056.50;;;15.42;62.00
15444;BME280;7822;48.146;11.576;2024-03-02T00:28:16;94051.28;;;15.42;62.02
15444;BME280;7822;48.146;11.576;2024-03-02T00:30:50;94049.69;;;15.41;62.12
15444;BME280;7822;48.146;11.576;2024-03-02T00:33:18;94048.03;;;15.40;62.24
15444;BME280;7822;48.146;11.576;2024-03-02T00:35:47;94050.66;;;15.40;62.10
15444;BME280;7822;48.146;11.576;2024-03-02T00:38:14;94047.41;;;15.38;62.04
15444;BME280;7822;48.146;11.576;2024-03-02T00:40:42;94043.19;;;15.37;61.57
15444;BME280;7822;48.146;11.576;2024-03-02T00:43:12;94036.34;;;15.36;61.86
15444;BME280;7822;48.146;11.576;2024-03-02T00:45:51;94035.53;;;15.36;61.86
15444;BME280;7822;48.146;11.576;2024-03-02T00:48:18;94034.72;;;15.35;61.85
15444;BME280;7822;48.146;11.576;2024-03-02T00:50:46;94032.91;;;15.36;62.04
15444;BME280;7822;48.146;11.576;2024-03-02T00:53:18;94040.94;;;15.34;61.88
15444;BME280;7822;48.146;11.576;2024-03-02T00:55:50;94046.16;;;15.34;61.97
15444;BME280;7822;48.146;11.576;2024-03-02T00:58:18;94044.53;;;15.33;61.81
15444;BME280;7822;48.146;11.576;2024-03-02T01:00:46;94055.16;;;15.32;61.92
15444;BME280;7822;48.146;11.576;2024-03-02T01:03:15;94051.75;;;15.31;61.86
15444;BME280;7822;48.146;11.576;2024-03-02T01:05:42;94044.09;;;15.30;61.42
15444;BME280;7822;48.146;11.576;2024-03-02T01:08:10;94051.94;;;15.30;61.68
15444;BME280;7822;48.146;11.576;2024-03-02T01:10:38;94042.44;;;15.29;61.84
15444;BME280;7822;48.146;11.576;2024-03-02T01:13:06;94046.06;;;15.28;61.84
15444;BME280;7822;48.146;11.576;2024-03-02T01:15:33;94052.91;;;15.29;62.03
15444;BME280;7822;48.146;11.576;2024-03-02T01:18:01;94047.88;;;15.27;62.04
15444;BME280;7822;48.146;11.576;2024-03-02T01:20:31;94038.44;;;15.26;61.78
15444;BME280;7822;48.146;11.576;2024-03-02T01:22:58;94046.25;;;15.26;62.05
15444;BME280;7822;48.146;11.576;2024-03-02T01:25:26;94047.25;;;15.25;62.00
15444;BME280;7822;48.146;11.576;2024-03-02T01:27:53;94042.00;;;15.25;62.08
15444;BME280;7822;48.146;11.576;2024-03-02T01:30:21;94039.41;;;15.25;61.95
15444;BME280;7822;48.146;11.576;2024-03-02T01:32:48;94043.81;;;15.25;62.08
15444;BME280;7822;48.146;11.576;2024-03-02T01:35:16;94047.44;;;15.24;62.24
15444;BME280;7822;48.146;11.576;2024-03-02T01:37:45;94048.25;;;15.24;62.02
15444;BME280;7822;48.146;11.576;2024-03-02T01:40:12;94038.78;;;15.23;62.08
15444;BME280;7822;48.146;11.576;2024-03-02T01:42:40;94044.19;;;15.22;61.81
15444;BME280;7822;48.146;11.576;2024-03-02T01:45:08;94042.34;;;15.22;62.04
15444;BME280;7822;48.146;11.576;2024-03-02T01:47:35;94040.75;;;15.21;62.01
15444;BME280;7822;48.146;11.576;2024-03-02T01:50:03;94033.75;;;15.22;62.11
15444;BME280;7822;48.146;11.576;2024-03-02T01:52:31;94031.28;;;15.20;62.14
15444;BME280;7822;48.146;11.576;2024-03-02T01:54:59;94031.28;;;15.20;62.18
15444;BME280;7822;48.146;11.576;2024-03-02T01:57:27;94026.06;;;15.20;61.96
15444;BME280;7822;48.146;11.576;2024-03-02T01:59:55;94027.88;;;15.20;61.96
15444;BME280;7822;48.146;11.576;2024-03-02T02:02:22;94024.44;;;15.19;62.02
15444;BME280;7822;48.146;11.576;2024-03-02T02:04:50;94020.84;;;15.20;61.99
15444;BME280;7822;48.146;11.576;2024-03-02T02:07:17;94016.63;;;15.19;61.84
15444;BME280;7822;48.146;11.576;2024-03-02T02:09:45;94005.34;;;15.19;61.80
15444;BME280;7822;48.146;11.576;2024-03-02T02:12:14;94002.75;;;15.19;61.98
15444;BME280;7822;48.146;11.576;2024-03-02T02:14:46;94007.16;;;15.18;61.78
15444;BME280;7822;48.146;11.576;2024-03-02T02:17:14;94008.97;;;15.18;61.92
15444;BME280;7822;48.146;11.576;2024-03-02T02:19:41;94008.97;;;15.18;61.82
15444;BME280;7822;48.146;11.576;2024-03-02T02:22:11;94008.16;;;15.17;61.96
15444;BME280;7822;48.146;11.576;2024-03-02T02:24:39;94005.53;;;15.17;61.94
15444;BME280;7822;48.146;11.576;2024-03-02T02:27:07;94004.72;;;15.17;61.78
15444;BME280;7822;48.146;11.576;2024-03-02T02:29:35;94002.09;;;15.17;61.99
15444;BME280;7822;48.146;11.576;2024-03-02T02:32:02;94006.50;;;15.16;61.78
15444;BME280;7822;48.146;11.576;2024-03-02T02:34:30;94009.94;;;15.17;61.88
15444;BME280;7822;48.146;11.576;2024-03-02T02:36:57;94005.88;;;15.14;61.88
15444;BME280;7822;48.146;11.576;2024-03-02T02:39:26;94010.28;;;15.14;61.73
15444;BME280;7822;48.146;11.576;2024-03-02T02:41:54;94007.53;;;15.15;61.71
15444;BME280;7822;48.146;11.576;2024-03-02T02:44:22;94005.88;;;15.14;61.75
15444;BME280;7822;48.146;11.576;2024-03-02T02:46:49;94005.88;;;15.14;61.83
15444;BME280;7822;48.146;11.576;2024-03-02T02:49:17;94002.66;;;15.12;61.78
15444;BME280;7822;48.146;11.576;2024-03-02T02:51:44;94009.50;;;15.13;61.81
15444;BME280;7822;48.146;11.576;2024-03-02T02:54:12;94012.13;;;15.13;61.77
15444;BME280;7822;48.146;11.576;2024-03-02T02:56:41;94014.06;;;15.11;61.69
15444;BME280;7822;48.146;11.576;2024-03-02T02:59:08;94021.91;;;15.11;61.74
15444;BME280;7822;48.146;11.576;2024-03-02T03:01:36;94020.13;;;15.12;61.79
15444;BME280;7822;48.146;11.576;2024-03-02T03:04:03;94010.66;;;15.11;61.79
15444;BME280;7822;48.146;11.576;2024-03-02T03:06:31;94012.47;;;15.10;61.69
15444;BME280;7822;48.146;11.576;2024-03-02T03:08:58;94014.06;;;15.11;61.91
15444;BME280;7822;48.146;11.576;2024-03-02T03:11:26;94011.47;;;15.11;61.70
15444;BME280;7822;48.146;11.576;2024-03-02T03:13:55;94018.50;;;15.11;61.81
15444;BME280;7822;48.146;11.576;2024-03-02T03:16:22;94015.06;;;15.10;61.46
15444;BME280;7822;48.146;11.576;2024-03-02T03:18:50;94020.31;;;15.10;61.70
15444;BME280;7822;48.146;11.576;2024-03-02T03:21:19;94014.25;;;15.10;61.80
15444;BME280;7822;48.146;11.576;2024-03-02T03:23:47;94016.88;;;15.10;61.87
15444;BME280;7822;48.146;11.576;2024-03-02T03:26:15;94021.13;;;15.11;61.64
15444;BME280;7822;48.146;11.576;2024-03-02T03:28:42;94017.88;;;15.09;61.68
15444;BME280;7822;48.146;11.576;2024-03-02T03:31:11;94022.91;;;15.10;61.73
15444;BME280;7822;48.146;11.576;2024-03-02T03:33:38;94020.31;;;15.10;61.80
15444;BME280;7822;48.146;11.576;2024-03-02T03:36:06;94020.50;;;15.09;61.79
15444;BME280;7822;48.146;11.576;2024-03-02T03:38:34;94018.66;;;15.09;61.83
15444;BME280;7822;48.146;11.576;2024-03-02T03:41:01;94020.50;;;15.09;61.93
15444;BME280;7822;48.146;11.576;2024-03-02T03:43:29;94026.50;;;15.09;61.87
15444;BME280;7822;48.146;11.576;2024-03-02T03:45:56;94028.31;;;15.09;61.80
15444;BME280;7822;48.146;11.576;2024-03-02T03:48:25;94030.13;;;15.08;62.00
15444;BME280;7822;48.146;11.576;2024-03-02T03:50:57;94019.66;;;15.08;61.93
15444;BME280;7822;48.146;11.576;2024-03-02T03:53:24;94021.28;;;15.09;61.90
15444;BME280;7822;48.146;11.576;2024-03-02T03:55:52;94021.66;;;15.06;61.64
15444;BME280;7822;48.146;11.576;2024-03-02T03:58:19;94025.09;;;15.07;61.62
15444;BME280;7822;48.146;11.576;2024-03-02T04:00:48;94019.03;;;15.06;61.56
15444;BME280;7822;48.146;11.576;2024-03-02T04:03:16;94019.03;;;15.06;61.71
15444;BME280;7822;48.146;11.576;2024-03-02T04:05:45;94021.66;;;15.06;61.62
15444;BME280;7822;48.146;11.576;2024-03-02T04:08:12;94021.66;;;15.06;61.40
15444;BME280;7822;48.146;11.576;2024-03-02T04:10:40;94033.91;;;15.06;61.58
15444;BME280;7822;48.146;11.576;2024-03-02T04:13:08;94030.47;;;15.05;61.46
15444;BME280;7822;48.146;11.576;2024-03-02T04:15:36;94029.66;;;15.05;61.64
15444;BME280;7822;48.146;11.576;2024-03-02T04:18:04;94034.88;;;15.05;61.49
15444;BME280;7822;48.146;11.576;2024-03-02T04:20:31;94036.50;;;15.06;61.43
15444;BME280;7822;48.146;11.576;2024-03-02T04:23:00;94040.91;;;15.05;61.64
15444;BME280;7822;48.146;11.576;2024-03-02T04:25:28;94041.91;;;15.04;61.46
15444;BME280;7822;48.146;11.576;2024-03-02T04:27:55;94042.91;;;15.03;61.64
15444;BME280;7822;48.146;11.576;2024-03-02T04:30:23;94039.31;;;15.04;61.42
15444;BME280;7822;48.146;11.576;2024-03-02T04:32:51;94047.16;;;15.04;61.51
15444;BME280;7822;48.146;11.576;2024-03-02T04:35:19;94049.75;;;15.04;61.43
15444;BME280;7822;48.146;11.576;2024-03-02T04:37:47;94042.72;;;15.05;61.50
15444;BME280;7822;48.146;11.576;2024-03-02T04:40:16;94047.94;;;15.05;61.51
15444;BME280;7822;48.146;11.576;2024-03-02T04:42:44;94050.72;;;15.03;61.42
15444;BME280;7822;48.146;11.576;2024-03-02T04:45:11;94056.78;;;15.04;61.70
15444;BME280;7822;48.146;11.576;2024-03-02T04:47:39;94060.38;;;15.03;61.52
15444;BME280;7822;48.146;11.576;2024-03-02T04:50:07;94067.41;;;15.02;61.11
15444;BME280;7822;48.146;11.576;2024-03-02T04:52:34;94069.38;;;15.00;60.91
15444;BME280;7822;48.146;11.576;2024-03-02T04:55:02;94071.81;;;15.02;61.08
15444;BME280;7822;48.146;11.576;2024-03-02T04:58:03;94067.56;;;15.01;61.02
15444;BME280;7822;48.146;11.576;2024-03-02T05:00:30;94073.59;;;15.01;60.92
15444;BME280;7822;48.146;11.576;2024-03-02T05:02:58;94072.97;;;14.99;61.02
15444;BME280;7822;48.146;11.576;2024-03-02T05:05:25;94073.78;;;15.00;61.02
15444;BME280;7822;48.146;11.576;2024-03-02T05:07:53;94077.22;;;15.00;60.78
15444;BME280;7822;48.146;11.576;2024-03-02T05:10:20;94072.00;;;15.00;61.16
15444;BME280;7822;48.146;11.576;2024-03-02T05:12:48;94074.63;;;15.00;61.22
15444;BME280;7822;48.146;11.576;2024-03-02T05:15:24;94080.47;;;15.02;61.18
15444;BME280;7822;48.146;11.576;2024-03-02T05:17:52;94080.28;;;15.04;61.31
15444;BME280;7822;48.146;11.576;2024-03-02T05:20:20;94082.88;;;15.04;61.16
15444;BME280;7822;48.146;11.576;2024-03-02T05:22:47;94076.03;;;15.03;61.04
15444;BME280;7822;48.146;11.576;2024-03-02T05:25:14;94073.25;;;15.04;61.22
15444;BME280;7822;48.146;11.576;2024-03-02T05:27:42;94071.63;;;15.03;61.01
15444;BME280;7822;48.146;11.576;2024-03-02T05:30:10;94068.19;;;15.03;61.36
15444;BME280;7822;48.146;11.576;2024-03-02T05:32:39;94081.09;;;15.04;61.38
15444;BME280;7822;48.146;11.576;2024-03-02T05:35:07;94072.44;;;15.04;61.30
15444;BME280;7822;48.146;11.576;2024-03-02T05:37:36;94078.50;;;15.04;61.14
15444;BME280;7822;48.146;11.576;2024-03-02T05:40:05;94080.28;;;15.04;61.25
15444;BME280;7822;48.146;11.576;2024-03-02T05:42:34;94074.25;;;15.03;61.34
15444;BME280;7822;48.146;11.576;2024-03-02T05:45:01;94086.47;;;15.03;61.43
15444;BME280;7822;48.146;11.576;2024-03-02T05:47:29;94086.47;;;15.03;61.44
15444;BME280;7822;48.146;11.576;2024-03-02T05:49:58;94084.69;;;15.03;61.23
15444;BME280;7822;48.146;11.576;2024-03-02T05:52:25;94087.28;;;15.03;61.17
15444;BME280;7822;48.146;11.576;2024-03-02T05:54:52;94083.88;;;15.03;61.08
15444;BME280;7822;48.146;11.576;2024-03-02T05:57:20;94085.69;;;15.02;61.12
15444;BME280;7822;48.146;11.576;2024-03-02T06:00:03;94085.84;;;15.01;61.13
15444;BME280;7822;48.146;11.576;2024-03-02T06:02:34;94084.06;;;15.01;61.12
15444;BME280;7822;48.146;11.576;2024-03-02T06:05:06;94088.31;;;15.02;61.41
15444;BME280;7822;48.146;11.576;2024-03-02T06:07:34;94079.66;;;15.02;60.98
15444;BME280;7822;48.146;11.576;2024-03-02T06:10:01;94075.25;;;15.02;61.28
15444;BME280;7822;48.146;11.576;2024-03-02T06:12:30;94080.47;;;15.02;61.31
15444;BME280;7822;48.146;11.576;2024-03-02T06:14:58;94087.47;;;15.02;61.31
15444;BME280;7822;48.146;11.576;2024-03-02T06:17:26;94089.28;;;15.01;61.30
15444;BME280;7822;48.146;11.576;2024-03-02T06:19:53;94089.28;;;15.01;61.32
15444;BME280;7822;48.146;11.576;2024-03-02T06:22:22;94092.72;;;15.02;61.02
15444;BME280;7822;48.146;11.576;2024-03-02T06:24:51;94088.47;;;15.01;61.31
15444;BME280;7822;48.146;11.576;2024-03-02T06:27:18;94084.25;;;15.00;61.23
15444;BME280;7822;48.146;11.576;2024-03-02T06:29:46;94080.63;;;15.01;61.23
15444;BME280;7822;48.146;11.576;2024-03-02T06:32:14;94079.66;;;15.02;61.31
15444;BME280;7822;48.146;11.576;2024-03-02T06:34:42;94087.47;;;15.02;61.30
15444;BME280;7822;48.146;11.576;2024-03-02T06:37:09;94090.09;;;15.02;61.24
15444;BME280;7822;48.146;11.576;2024-03-02T06:39:38;94080.47;;;15.02;61.39
15444;BME280;7822;48.146;11.576;2024-03-02T06:42:06;94084.06;;;15.01;61.24
15444;BME280;7822;48.146;11.576;2024-03-02T06:44:33;94079.84;;;15.00;61.12
15444;BME280;7822;48.146;11.576;2024-03-02T06:47:01;94080.47;;;15.02;61.43
15444;BME280;7822;48.146;11.576;2024-03-02T06:49:28;94077.22;;;15.00;61.07
15444;BME280;7822;48.146;11.576;2024-03-02T06:51:56;94085.69;;;15.02;61.33
15444;BME280;7822;48.146;11.576;2024-03-02T06:54:23;94078.84;;;15.01;61.11
15444;BME280;7822;48.146;11.576;2024-03-02T06:56:52;94069.19;;;15.02;61.38
15444;BME280;7822;48.146;11.576;2024-03-02T06:59:20;94071.00;;;15.01;61.36
15444;BME280;7822;48.146;11.576;2024-03-02T07:01:47;94072.63;;;15.02;61.31
15444;BME280;7822;48.146;11.576;2024-03-02T07:04:15;94077.84;;;15.02;61.17
15444;BME280;7822;48.146;11.576;2024-03-02T07:06:42;94076.22;;;15.01;61.24
15444;BME280;7822;48.146;11.576;2024-03-02T07:09:10;94084.06;;;15.01;61.14
15444;BME280;7822;48.146;11.576;2024-03-02T07:11:38;94078.84;;;15.01;61.07
15444;BME280;7822;48.146;11.576;2024-03-02T07:14:07;94086.66;;;15.01;61.22
15444;BME280;7822;48.146;11.576;2024-03-02T07:16:36;94082.25;;;15.02;61.29
15444;BME280;7822;48.146;11.576;2024-03-02T07:19:04;94087.66;;;15.00;61.12
15444;BME280;7822;48.146;11.576;2024-03-02T07:21:32;94091.88;;;15.01;61.24
15444;BME280;7822;48.146;11.576;2024-03-02T07:24:00;94099.53;;;15.03;61.30
15444;BME280;7822;48.146;11.576;2024-03-02T07:26:29;94095.31;;;15.02;61.33
15444;BME280;7822;48.146;11.576;2024-03-02T07:29:00;94095.50;;;15.00;61.44
15444;BME280;7822;48.146;11.576;2024-03-02T07:31:29;94111.19;;;15.00;61.35
15444;BME280;7822;48.146;11.576;2024-03-02T07:33:57;94105.94;;;15.00;61.20
15444;BME280;7822;48.146;11.576;2024-03-02T07:36:24;94096.47;;;14.99;60.99
15444;BME280;7822;48.146;11.576;2024-03-02T07:38:52;94101.69;;;14.99;60.96
15444;BME280;7822;48.146;11.576;2024-03-02T07:41:20;94109.72;;;14.98;60.77
15444;BME280;7822;48.146;11.576;2024-03-02T07:43:48;94106.94;;;14.99;60.89
15444;BME280;7822;48.146;11.576;2024-03-02T07:46:15;94106.94;;;14.99;60.83
15444;BME280;7822;48.146;11.576;2024-03-02T07:48:45;94103.50;;;14.99;60.95
15444;BME280;7822;48.146;11.576;2024-03-02T07:51:14;94101.88;;;14.98;61.01
15444;BME280;7822;48.146;11.576;2024-03-02T07:53:41;94103.50;;;14.99;61.02
15444;BME280;7822;48.146;11.576;2024-03-02T07:56:11;94106.09;;;14.99;60.98
15444;BME280;7822;48.146;11.576;2024-03-02T07:58:38;94102.69;;;14.98;61.04
15444;BME280;7822;48.146;11.576;2024-03-02T08:01:08;94105.28;;;14.98;61.07
15444;BME280;7822;48.146;11.576;2024-03-02T08:03:35;94100.06;;;14.98;61.08
15444;BME280;7822;48.146;11.576;2024-03-02T08:06:05;94104.50;;;14.98;61.05
15444;BME280;7822;48.146;11.576;2024-03-02T08:08:33;94101.88;;;14.98;60.88
15444;BME280;7822;48.146;11.576;2024-03-02T08:11:00;94103.69;;;14.97;61.00
15444;BME280;7822;48.146;11.576;2024-03-02T08:13:28;94101.88;;;14.98;60.99
15444;BME280;7822;48.146;11.576;2024-03-02T08:15:55;94109.72;;;14.98;60.82
15444;BME280;7822;48.146;11.576;2024-03-02T08:18:22;94112.34;;;14.98;60.99
15444;BME280;7822;48.146;11.576;2024-03-02T08:20:50;94113.31;;;14.97;60.98
15444;BME280;7822;48.146;11.576;2024-03-02T08:23:18;94104.66;;;14.96;60.94
15444;BME280;7822;48.146;11.576;2024-03-02T08:25:46;94115.91;;;14.97;60.96
15444;BME280;7822;48.146;11.576;2024-03-02T08:28:14;94109.72;;;14.98;60.88
15444;BME280;7822;48.146;11.576;2024-03-02T08:30:42;94110.50;;;14.98;60.84
15444;BME280;7822;48.146;11.576;2024-03-02T08:33:09;94116.56;;;14.99;61.01
15444;BME280;7822;48.146;11.576;2024-03-02T08:35:37;94115.72;;;14.98;61.05
15444;BME280;7822;48.146;11.576;2024-03-02T08:38:04;94117.38;;;14.99;60.96
15444;BME280;7822;48.146;11.576;2024-03-02T08:40:33;94122.59;;;14.99;60.98
15444;BME280;7822;48.146;11.576;2024-03-02T08:43:01;94124.22;;;15.00;61.02
15444;BME280;7822;48.146;11.576;2024-03-02T08:45:28;94115.59;;;15.00;61.01
15444;BME280;7822;48.146;11.576;2024-03-02T08:47:56;94118.34;;;14.98;61.03
15444;BME280;7822;48.146;11.576;2024-03-02T08:50:24;94117.81;;;15.03;61.08
15444;BME280;7822;48.146;11.576;2024-03-02T08:52:51;94115.25;;;15.17;61.08
15444;BME280;7822;48.146;11.576;2024-03-02T08:55:19;94111.19;;;15.15;60.68
15444;BME280;7822;48.146;11.576;2024-03-02T08:57:47;94116.75;;;15.12;60.58
15444;BME280;7822;48.146;11.576;2024-03-02T09:00:17;94106.84;;;15.07;60.60
15444;BME280;7822;48.146;11.576;2024-03-02T09:02:45;94114.03;;;15.05;60.53
15444;BME280;7822;48.146;11.576;2024-03-02T09:05:12;94114.41;;;15.02;60.54
15444;BME280;7822;48.146;11.576;2024-03-02T09:07:40;94117.81;;;15.03;60.53
15444;BME280;7822;48.146;11.576;2024-03-02T09:10:08;94115.41;;;15.01;60.63
15444;BME280;7822;48.146;11.576;2024-03-02T09:12:36;94113.78;;;15.00;60.76
15444;BME280;7822;48.146;11.576;2024-03-02T09:15:06;94113.94;;;14.99;60.65
15444;BME280;7822;48.146;11.576;2024-03-02T09:17:34;94120.97;;;14.98;60.67
15444;BME280;7822;48.146;11.576;2024-03-02T09:20:02;94120.97;;;14.98;60.65
15444;BME280;7822;48.146;11.576;2024-03-02T09:22:30;94121.97;;;14.97;60.83
15444;BME280;7822;48.146;11.576;2024-03-02T09:24:58;94129.63;;;14.99;60.90
15444;BME280;7822;48.146;11.576;2024-03-02T09:27:26;94113.94;;;14.99;61.04
15444;BME280;7822;48.146;11.576;2024-03-02T09:29:53;94113.78;;;15.00;61.03
15444;BME280;7822;48.146;11.576;2024-03-02T09:32:22;94110.16;;;15.01;60.99
15444;BME280;7822;48.146;11.576;2024-03-02T09:34:49;94124.88;;;15.02;60.92
15444;BME280;7822;48.146;11.576;2024-03-02T09:37:18;94109.97;;;15.03;60.89
15444;BME280;7822;48.146;11.576;2024-03-02T09:39:46;94109.00;;;15.04;60.59
15444;BME280;7822;48.146;11.576;2024-03-02T09:42:13;94113.88;;;15.07;60.73
15444;BME280;7822;48.146;11.576;2024-03-02T09:44:41;94112.88;;;15.08;61.00
15444;BME280;7822;48.146;11.576;2024-03-02T09:47:09;94112.69;;;15.09;60.86
15444;BME280;7822;48.146;11.576;2024-03-02T09:49:38;94109.94;;;15.11;61.01
15444;BME280;7822;48.146;11.576;2024-03-02T09:52:07;94114.16;;;15.12;60.98
15444;BME280;7822;48.146;11.576;2024-03-02T09:54:34;94101.91;;;15.12;60.54
15444;BME280;7822;48.146;11.576;2024-03-02T09:57:02;94110.38;;;15.14;60.48
15444;BME280;7822;48.146;11.576;2024-03-02T09:59:29;94106.78;;;15.15;60.69
15444;BME280;7822;48.146;11.576;2024-03-02T10:01:57;94106.78;;;15.15;60.87
15444;BME280;7822;48.146;11.576;2024-03-02T10:04:26;94109.22;;;15.17;60.61
15444;BME280;7822;48.146;11.576;2024-03-02T10:09:48;94104.81;;;15.17;60.62
15444;BME280;7822;48.146;11.576;2024-03-02T10:12:16;94099.59;;;15.17;60.54
15444;BME280;7822;48.146;11.576;2024-03-02T10:14:44;94099.41;;;15.19;60.60
15444;BME280;7822;48.146;11.576;2024-03-02T10:17:12;94104.44;;;15.20;60.50
15444;BME280;7822;48.146;11.576;2024-03-02T10:19:40;94103.66;;;15.20;60.26
15444;BME280;7822;48.146;11.576;2024-03-02T10:22:08;94097.41;;;15.21;60.31
15444;BME280;7822;48.146;11.576;2024-03-02T10:24:36;94095.63;;;15.21;60.37
15444;BME280;7822;48.146;11.576;2024-03-02T10:27:10;94099.22;;;15.20;60.45
15444;BME280;7822;48.146;11.576;2024-03-02T10:29:38;94093.97;;;15.20;60.43
15444;BME280;7822;48.146;11.576;2024-03-02T10:32:08;94087.97;;;15.20;60.50
15444;BME280;7822;48.146;11.576;2024-03-02T10:34:36;94093.19;;;15.20;60.36
15444;BME280;7822;48.146;11.576;2024-03-02T10:37:04;94082.91;;;15.18;60.38
15444;BME280;7822;48.146;11.576;2024-03-02T10:39:32;94083.91;;;15.17;60.51
15444;BME280;7822;48.146;11.576;2024-03-02T10:42:02;94075.06;;;15.18;60.53
15444;BME280;7822;48.146;11.576;2024-03-02T10:44:32;94076.06;;;15.17;60.64
15444;BME280;7822;48.146;11.576;2024-03-02T10:47:00;94068.41;;;15.16;60.63
15444;BME280;7822;48.146;11.576;2024-03-02T10:49:30;94069.22;;;15.16;60.51
15444;BME280;7822;48.146;11.576;2024-03-02T10:51:58;94064.00;;;15.16;60.69
15444;BME280;7822;48.146;11.576;2024-03-02T10:54:26;94056.34;;;15.15;60.21
15444;BME280;7822;48.146;11.576;2024-03-02T10:56:55;94052.09;;;15.14;60.39
15444;BME280;7822;48.146;11.576;2024-03-02T10:59:27;94044.88;;;15.16;60.59
15444;BME280;7822;48.146;11.576;2024-03-02T11:01:58;94042.28;;;15.16;60.66
15444;BME280;7822;48.146;11.576;2024-03-02T11:04:31;94042.94;;;15.18;60.59
15444;BME280;7822;48.146;11.576;2024-03-02T11:06:59;94038.50;;;15.18;60.69
15444;BME280;7822;48.146;11.576;2024-03-02T11:09:28;94034.28;;;15.17;60.52
15444;BME280;7822;48.146;11.576;2024-03-02T11:11:58;94025.63;;;15.17;60.71
15444;BME280;7822;48.146;11.576;2024-03-02T11:14:28;94022.19;;;15.16;60.42
15444;BME280;7822;48.146;11.576;2024-03-02T11:16:58;94024.81;;;15.16;60.68
15444;BME280;7822;48.146;11.576;2024-03-02T11:19:27;94022.19;;;15.16;60.37
15444;BME280;7822;48.146;11.576;2024-03-02T11:21:55;94014.53;;;15.15;60.52
15444;BME280;7822;48.146;11.576;2024-03-02T11:24:30;94015.34;;;15.15;60.65
15444;BME280;7822;48.146;11.576;2024-03-02T11:27:04;94008.69;;;15.13;60.10
15444;BME280;7822;48.146;11.576;2024-03-02T11:29:43;94008.50;;;15.14;60.56
15444;BME280;7822;48.146;11.576;2024-03-02T11:32:20;94001.66;;;15.13;60.46
15444;BME280;7822;48.146;11.576;2024-03-02T11:34:48;93994.63;;;15.14;60.48
15444;BME280;7822;48.146;11.576;2024-03-02T11:37:16;93992.81;;;15.14;60.37
15444;BME280;7822;48.146;11.576;2024-03-02T11:39:44;93985.81;;;15.15;60.52
15444;BME280;7822;48.146;11.576;2024-03-02T11:42:12;93981.56;;;15.14;60.48
15444;BME280;7822;48.146;11.576;2024-03-02T11:44:42;93987.59;;;15.14;60.63
15444;BME280;7822;48.146;11.576;2024-03-02T11:47:10;93983.38;;;15.13;60.69
15444;BME280;7822;48.146;11.576;2024-03-02T11:49:42;93978.94;;;15.14;60.77
15444;BME280;7822;48.146;11.576;2024-03-02T11:52:12;93960.84;;;15.12;60.39
15444;BME280;7822;48.146;11.576;2024-03-02T11:54:42;93966.91;;;15.13;60.64
15444;BME280;7822;48.146;11.576;2024-03-02T11:57:15;93966.91;;;15.13;60.64
15444;BME280;7822;48.146;11.576;2024-03-02T11:59:43;93961.47;;;15.14;60.58
15444;BME280;7822;48.146;11.576;2024-03-02T12:02:14;93954.47;;;15.15;60.34
15444;BME280;7822;48.146;11.576;2024-03-02T12:04:43;93959.69;;;15.15;60.69
15444;BME280;7822;48.146;11.576;2024-03-02T12:07:11;93951.84;;;15.15;60.46
15444;BME280;7822;48.146;11.576;2024-03-02T12:09:38;93941.59;;;15.13;60.56
15444;BME280;7822;48.146;11.576;2024-03-02T12:12:06;93946.63;;;15.15;60.52
15444;BME280;7822;48.146;11.576;2024-03-02T12:14:34;93937.16;;;15.14;60.19
15444;BME280;7822;48.146;11.576;2024-03-02T12:17:02;93929.31;;;15.14;60.37
15444;BME280;7822;48.146;11.576;2024-03-02T12:19:31;93930.13;;;15.14;60.41
15444;BME280;7822;48.146;11.576;2024-03-02T12:21:59;93924.72;;;15.16;60.52
15444;BME280;7822;48.146;11.576;2024-03-02T12:24:28;93920.69;;;15.13;60.42
15444;BME280;7822;48.146;11.576;2024-03-02T12:26:56;93917.06;;;15.14;60.50
15444;BME280;7822;48.146;11.576;2024-03-02T12:29:24;93911.84;;;15.14;60.36
15444;BME280;7822;48.146;11.576;2024-03-02T12:31:52;93913.47;;;15.15;60.31
15444;BME280;7822;48.146;11.576;2024-03-02T12:34:21;93904.00;;;15.14;60.47
15444;BME280;7822;48.146;11.576;2024-03-02T12:36:49;93904.81;;;15.15;60.17
15444;BME280;7822;48.146;11.576;2024-03-02T12:39:20;93899.78;;;15.13;59.88
15444;BME280;7822;48.146;11.576;2024-03-02T12:41:49;93895.56;;;15.12;60.50
15444;BME280;7822;48.146;11.576;2024-03-02T12:44:17;93891.16;;;15.13;60.49
15444;BME280;7822;48.146;11.576;2024-03-02T12:46:45;93882.31;;;15.14;60.34
15444;BME280;7822;48.146;11.576;2024-03-02T12:49:13;93883.13;;;15.14;60.35
15444;BME280;7822;48.146;11.576;2024-03-02T12:51:42;93874.47;;;15.14;60.16
15444;BME280;7822;48.146;11.576;2024-03-02T12:54:11;93882.31;;;15.14;60.32
15444;BME280;7822;48.146;11.576;2024-03-02T12:56:40;93874.47;;;15.14;60.30
15444;BME280;7822;48.146;11.576;2024-03-02T12:59:17;93873.69;;;15.13;60.26
15444;BME280;7822;48.146;11.576;2024-03-02T13:01:49;93863.22;;;15.13;60.30
15444;BME280;7822;48.146;11.576;2024-03-02T13:04:17;93871.06;;;15.13;60.11
15444;BME280;7822;48.146;11.576;2024-03-02T13:06:48;93865.84;;;15.13;60.34
15444;BME280;7822;48.146;11.576;2024-03-02T13:09:16;93855.56;;;15.12;60.02